sensor_id;sensor_type;location;lat;lon;timestamp;pressure;altitude;pressure_sealevel;temperature
76476;BMP280;65308;50.078;14.854;2023-02-19T00:02:08;99126.88;;;10.58
76476;BMP280;65308;50.078;14.854;2023-02-19T00:04:35;99108.19;;;10.36
76476;BMP280;65308;50.078;14.854;2023-02-19T00:07:02;99113.09;;;10.38
76476;BMP280;65308;50.078;14.854;2023-02-19T00:09:30;99105.03;;;10.28
76476;BMP280;65308;50.078;14.854;2023-02-19T00:11:56;99110.66;;;10.30
76476;BMP280;65308;50.078;14.854;2023-02-19T00:14:23;99102.34;;;10.28
76476;BMP280;65308;50.078;14.854;2023-02-19T00:16:50;99107.81;;;10.25
76476;BMP280;65308;50.078;14.854;2023-02-19T00:19:18;99097.63;;;10.32
76476;BMP280;65308;50.078;14.854;2023-02-19T00:21:45;99110.66;;;10.30
76476;BMP280;65308;50.078;14.854;2023-02-19T00:24:13;99110.38;;;10.28
76476;BMP280;65308;50.078;14.854;2023-02-19T00:26:42;99107.06;;;10.24
76476;BMP280;65308;50.078;14.854;2023-02-19T00:29:11;99108.75;;;10.31
76476;BMP280;65308;50.078;14.854;2023-02-19T00:31:38;99091.13;;;10.43
76476;BMP280;65308;50.078;14.854;2023-02-19T00:34:06;99089.34;;;10.40
76476;BMP280;65308;50.078;14.854;2023-02-19T00:36:36;99091.81;;;10.34
76476;BMP280;65308;50.078;14.854;2023-02-19T00:39:03;99085.41;;;10.31
76476;BMP280;65308;50.078;14.854;2023-02-19T00:41:30;99088.78;;;10.45
76476;BMP280;65308;50.078;14.854;2023-02-19T00:44:00;99089.28;;;10.30
76476;BMP280;65308;50.078;14.854;2023-02-19T00:46:29;99085.13;;;10.29
76476;BMP280;65308;50.078;14.854;2023-02-19T00:48:56;99075.81;;;10.43
76476;BMP280;65308;50.078;14.854;2023-02-19T00:51:24;99069.84;;;10.39
76476;BMP280;65308;50.078;14.854;2023-02-19T00:53:52;99079.81;;;10.17
76476;BMP280;65308;50.078;14.854;2023-02-19T00:56:19;99078.28;;;10.28
76476;BMP280;65308;50.078;14.854;2023-02-19T00:58:45;99083.88;;;10.21
76476;BMP280;65308;50.078;14.854;2023-02-19T01:01:14;99076.47;;;10.25
76476;BMP280;65308;50.078;14.854;2023-02-19T01:03:41;99077.97;;;10.26
76476;BMP280;65308;50.078;14.854;2023-02-19T01:06:09;99081.69;;;10.29
76476;BMP280;65308;50.078;14.854;2023-02-19T01:08:36;99083.22;;;10.30
76476;BMP280;65308;50.078;14.854;2023-02-19T01:11:04;99095.13;;;10.16
76476;BMP280;65308;50.078;14.854;2023-02-19T01:13:32;99077.47;;;10.19
76476;BMP280;65308;50.078;14.854;2023-02-19T01:16:02;99073.44;;;10.14
76476;BMP280;65308;50.078;14.854;2023-02-19T01:18:31;99075.47;;;10.10
76476;BMP280;65308;50.078;14.854;2023-02-19T01:20:57;99063.88;;;10.04
76476;BMP280;65308;50.078;14.854;2023-02-19T01:23:24;99075.41;;;10.01
76476;BMP280;65308;50.078;14.854;2023-02-19T01:25:51;99078.06;;;10.01
76476;BMP280;65308;50.078;14.854;2023-02-19T01:28:18;99075.31;;;9.92
76476;BMP280;65308;50.078;14.854;2023-02-19T01:30:45;99063.47;;;9.93
76476;BMP280;65308;50.078;14.854;2023-02-19T01:33:11;99067.03;;;9.90
76476;BMP280;65308;50.078;14.854;2023-02-19T01:35:39;99067.47;;;9.88
76476;BMP280;65308;50.078;14.854;2023-02-19T01:38:06;99057.75;;;9.81
76476;BMP280;65308;50.078;14.854;2023-02-19T01:40:33;99044.81;;;9.80
76476;BMP280;65308;50.078;14.854;2023-02-19T01:43:00;99041.53;;;9.76
76476;BMP280;65308;50.078;14.854;2023-02-19T01:45:28;99042.59;;;9.78
76476;BMP280;65308;50.078;14.854;2023-02-19T01:48:00;99022.44;;;9.86
76476;BMP280;65308;50.078;14.854;2023-02-19T01:50:32;99028.03;;;9.79
76476;BMP280;65308;50.078;14.854;2023-02-19T01:53:04;99027.97;;;9.70
76476;BMP280;65308;50.078;14.854;2023-02-19T01:55:33;99017.94;;;9.83
76476;BMP280;65308;50.078;14.854;2023-02-19T01:58:00;99019.66;;;9.90
76476;BMP280;65308;50.078;14.854;2023-02-19T02:00:28;99004.34;;;9.91
76476;BMP280;65308;50.078;14.854;2023-02-19T02:02:56;99009.06;;;9.86
76476;BMP280;65308;50.078;14.854;2023-02-19T02:05:40;99002.00;;;9.71
76476;BMP280;65308;50.078;14.854;2023-02-19T02:08:11;99001.50;;;9.85
76476;BMP280;65308;50.078;14.854;2023-02-19T02:10:56;98997.47;;;9.80
76476;BMP280;65308;50.078;14.854;2023-02-19T02:13:23;98993.53;;;9.72
76476;BMP280;65308;50.078;14.854;2023-02-19T02:15:56;98989.75;;;9.82
76476;BMP280;65308;50.078;14.854;2023-02-19T02:18:33;98981.75;;;9.92
76476;BMP280;65308;50.078;14.854;2023-02-19T02:21:32;98985.06;;;9.96
76476;BMP280;65308;50.078;14.854;2023-02-19T02:24:11;98978.25;;;9.95
76476;BMP280;65308;50.078;14.854;2023-02-19T02:26:50;98959.63;;;9.91
76476;BMP280;65308;50.078;14.854;2023-02-19T02:29:53;98972.75;;;9.98
76476;BMP280;65308;50.078;14.854;2023-02-19T02:32:31;98964.56;;;9.93
76476;BMP280;65308;50.078;14.854;2023-02-19T02:35:00;98959.22;;;9.93
76476;BMP280;65308;50.078;14.854;2023-02-19T02:37:32;98948.50;;;9.93
76476;BMP280;65308;50.078;14.854;2023-02-19T02:40:00;98942.28;;;9.96
76476;BMP280;65308;50.078;14.854;2023-02-19T02:42:27;98944.38;;;10.01
76476;BMP280;65308;50.078;14.854;2023-02-19T02:44:56;98943.69;;;10.09
76476;BMP280;65308;50.078;14.854;2023-02-19T02:47:43;98933.13;;;10.06
76476;BMP280;65308;50.078;14.854;2023-02-19T02:50:15;98938.22;;;10.13
76476;BMP280;65308;50.078;14.854;2023-02-19T02:52:45;98934.84;;;10.22
76476;BMP280;65308;50.078;14.854;2023-02-19T02:55:37;98932.56;;;10.11
76476;BMP280;65308;50.078;14.854;2023-02-19T02:58:06;98919.97;;;10.21
76476;BMP280;65308;50.078;14.854;2023-02-19T03:00:34;98908.19;;;10.09
76476;BMP280;65308;50.078;14.854;2023-02-19T03:03:17;98914.78;;;10.26
76476;BMP280;65308;50.078;14.854;2023-02-19T03:05:48;98902.47;;;10.29
76476;BMP280;65308;50.078;14.854;2023-02-19T03:08:20;98906.63;;;10.39
76476;BMP280;65308;50.078;14.854;2023-02-19T03:10:51;98897.84;;;10.39
76476;BMP280;65308;50.078;14.854;2023-02-19T03:13:24;98902.66;;;10.44
76476;BMP280;65308;50.078;14.854;2023-02-19T03:16:15;98894.91;;;10.36
76476;BMP280;65308;50.078;14.854;2023-02-19T03:19:01;98880.59;;;10.30
76476;BMP280;65308;50.078;14.854;2023-02-19T03:21:49;98893.09;;;10.33
76476;BMP280;65308;50.078;14.854;2023-02-19T03:24:20;98885.69;;;10.38
76476;BMP280;65308;50.078;14.854;2023-02-19T03:27:06;98877.94;;;10.21
76476;BMP280;65308;50.078;14.854;2023-02-19T03:29:36;98860.78;;;10.09
76476;BMP280;65308;50.078;14.854;2023-02-19T03:32:09;98859.19;;;10.12
76476;BMP280;65308;50.078;14.854;2023-02-19T03:34:41;98857.66;;;10.02
76476;BMP280;65308;50.078;14.854;2023-02-19T03:37:13;98846.38;;;10.07
76476;BMP280;65308;50.078;14.854;2023-02-19T03:39:41;98847.34;;;9.91
76476;BMP280;65308;50.078;14.854;2023-02-19T03:42:19;98863.97;;;9.86
76476;BMP280;65308;50.078;14.854;2023-02-19T03:44:59;98847.66;;;9.93
76476;BMP280;65308;50.078;14.854;2023-02-19T03:47:29;98834.59;;;9.95
76476;BMP280;65308;50.078;14.854;2023-02-19T03:50:02;98840.38;;;9.94
76476;BMP280;65308;50.078;14.854;2023-02-19T03:52:38;98830.59;;;9.91
76476;BMP280;65308;50.078;14.854;2023-02-19T03:55:10;98834.25;;;9.84
76476;BMP280;65308;50.078;14.854;2023-02-19T03:57:46;98840.38;;;9.94
76476;BMP280;65308;50.078;14.854;2023-02-19T04:00:16;98842.47;;;9.90
76476;BMP280;65308;50.078;14.854;2023-02-19T04:02:47;98837.59;;;9.97
76476;BMP280;65308;50.078;14.854;2023-02-19T04:05:18;98835.63;;;9.88
76476;BMP280;65308;50.078;14.854;2023-02-19T04:07:48;98838.94;;;10.02
76476;BMP280;65308;50.078;14.854;2023-02-19T04:10:17;98834.66;;;10.04
76476;BMP280;65308;50.078;14.854;2023-02-19T04:12:47;98836.41;;;9.98
76476;BMP280;65308;50.078;14.854;2023-02-19T04:15:18;98832.09;;;10.01
76476;BMP280;65308;50.078;14.854;2023-02-19T04:17:54;98853.50;;;10.10
76476;BMP280;65308;50.078;14.854;2023-02-19T04:20:22;98847.56;;;10.06
76476;BMP280;65308;50.078;14.854;2023-02-19T04:22:51;98849.94;;;10.13
76476;BMP280;65308;50.078;14.854;2023-02-19T04:25:18;98855.59;;;10.06
76476;BMP280;65308;50.078;14.854;2023-02-19T04:27:45;98842.50;;;10.08
76476;BMP280;65308;50.078;14.854;2023-02-19T04:30:13;98851.16;;;10.12
76476;BMP280;65308;50.078;14.854;2023-02-19T04:32:40;98836.31;;;10.20
76476;BMP280;65308;50.078;14.854;2023-02-19T04:35:08;98839.28;;;10.22
76476;BMP280;65308;50.078;14.854;2023-02-19T04:37:35;98845.13;;;10.30
76476;BMP280;65308;50.078;14.854;2023-02-19T04:40:01;98833.34;;;10.27
76476;BMP280;65308;50.078;14.854;2023-02-19T04:42:28;98838.84;;;10.24
76476;BMP280;65308;50.078;14.854;2023-02-19T04:44:55;98833.19;;;10.31
76476;BMP280;65308;50.078;14.854;2023-02-19T04:47:22;98829.03;;;10.39
76476;BMP280;65308;50.078;14.854;2023-02-19T04:49:49;98838.28;;;10.47
76476;BMP280;65308;50.078;14.854;2023-02-19T04:52:17;98828.63;;;10.50
76476;BMP280;65308;50.078;14.854;2023-02-19T04:54:44;98823.88;;;10.45
76476;BMP280;65308;50.078;14.854;2023-02-19T04:57:10;98825.94;;;10.41
76476;BMP280;65308;50.078;14.854;2023-02-19T04:59:37;98816.59;;;10.45
76476;BMP280;65308;50.078;14.854;2023-02-19T05:02:04;98809.28;;;10.55
76476;BMP280;65308;50.078;14.854;2023-02-19T05:04:31;98805.28;;;10.50
76476;BMP280;65308;50.078;14.854;2023-02-19T05:06:57;98804.41;;;10.44
76476;BMP280;65308;50.078;14.854;2023-02-19T05:09:25;98794.88;;;10.34
76476;BMP280;65308;50.078;14.854;2023-02-19T05:11:52;98793.81;;;10.31
76476;BMP280;65308;50.078;14.854;2023-02-19T05:14:19;98800.06;;;10.38
76476;BMP280;65308;50.078;14.854;2023-02-19T05:16:46;98801.84;;;10.41
76476;BMP280;65308;50.078;14.854;2023-02-19T05:19:16;98783.31;;;10.37
76476;BMP280;65308;50.078;14.854;2023-02-19T05:21:43;98784.03;;;10.28
76476;BMP280;65308;50.078;14.854;2023-02-19T05:24:09;98779.28;;;10.32
76476;BMP280;65308;50.078;14.854;2023-02-19T05:26:38;98777.47;;;10.39
76476;BMP280;65308;50.078;14.854;2023-02-19T05:29:05;98773.94;;;10.42
76476;BMP280;65308;50.078;14.854;2023-02-19T05:31:31;98773.75;;;10.27
76476;BMP280;65308;50.078;14.854;2023-02-19T05:33:59;98768.72;;;10.29
76476;BMP280;65308;50.078;14.854;2023-02-19T05:36:26;98781.94;;;10.14
76476;BMP280;65308;50.078;14.854;2023-02-19T05:38:54;98784.59;;;10.05
76476;BMP280;65308;50.078;14.854;2023-02-19T05:41:22;98783.63;;;9.99
76476;BMP280;65308;50.078;14.854;2023-02-19T05:43:51;98776.09;;;9.97
76476;BMP280;65308;50.078;14.854;2023-02-19T05:46:20;98779.69;;;10.12
76476;BMP280;65308;50.078;14.854;2023-02-19T05:48:48;98781.75;;;10.18
76476;BMP280;65308;50.078;14.854;2023-02-19T05:51:17;98773.00;;;10.26
76476;BMP280;65308;50.078;14.854;2023-02-19T05:53:44;98778.66;;;10.38
76476;BMP280;65308;50.078;14.854;2023-02-19T05:56:23;98779.84;;;10.36
76476;BMP280;65308;50.078;14.854;2023-02-19T05:58:53;98770.22;;;10.21
76476;BMP280;65308;50.078;14.854;2023-02-19T06:01:21;98763.78;;;10.27
76476;BMP280;65308;50.078;14.854;2023-02-19T06:03:48;98765.69;;;10.08
76476;BMP280;65308;50.078;14.854;2023-02-19T06:06:16;98775.22;;;10.09
76476;BMP280;65308;50.078;14.854;2023-02-19T06:08:43;98770.91;;;10.03
76476;BMP280;65308;50.078;14.854;2023-02-19T06:11:10;98772.22;;;10.07
76476;BMP280;65308;50.078;14.854;2023-02-19T06:13:37;98768.81;;;9.98
76476;BMP280;65308;50.078;14.854;2023-02-19T06:16:06;98758.25;;;9.94
76476;BMP280;65308;50.078;14.854;2023-02-19T06:18:34;98762.91;;;10.12
76476;BMP280;65308;50.078;14.854;2023-02-19T06:21:01;98766.47;;;10.09
76476;BMP280;65308;50.078;14.854;2023-02-19T06:23:28;98764.09;;;10.20
76476;BMP280;65308;50.078;14.854;2023-02-19T06:26:04;98767.97;;;10.19
76476;BMP280;65308;50.078;14.854;2023-02-19T06:28:31;98769.75;;;10.31
76476;BMP280;65308;50.078;14.854;2023-02-19T06:30:58;98769.91;;;10.28
76476;BMP280;65308;50.078;14.854;2023-02-19T06:33:26;98776.00;;;10.28
76476;BMP280;65308;50.078;14.854;2023-02-19T06:35:53;98772.72;;;10.24
76476;BMP280;65308;50.078;14.854;2023-02-19T06:38:20;98762.03;;;10.33
76476;BMP280;65308;50.078;14.854;2023-02-19T06:40:47;98769.16;;;10.36
76476;BMP280;65308;50.078;14.854;2023-02-19T06:43:13;98769.16;;;10.36
76476;BMP280;65308;50.078;14.854;2023-02-19T06:45:40;98762.03;;;10.61
76476;BMP280;65308;50.078;14.854;2023-02-19T06:48:07;98762.34;;;10.45
76476;BMP280;65308;50.078;14.854;2023-02-19T06:50:35;98751.47;;;10.57
76476;BMP280;65308;50.078;14.854;2023-02-19T06:53:02;98760.22;;;10.58
76476;BMP280;65308;50.078;14.854;2023-02-19T06:55:29;98768.84;;;10.71
76476;BMP280;65308;50.078;14.854;2023-02-19T06:57:56;98756.38;;;10.77
76476;BMP280;65308;50.078;14.854;2023-02-19T07:00:23;98761.25;;;10.88
76476;BMP280;65308;50.078;14.854;2023-02-19T07:02:50;98769.09;;;11.10
76476;BMP280;65308;50.078;14.854;2023-02-19T07:05:22;98773.06;;;11.15
76476;BMP280;65308;50.078;14.854;2023-02-19T07:07:50;98769.66;;;11.05
76476;BMP280;65308;50.078;14.854;2023-02-19T07:10:17;98768.63;;;11.12
76476;BMP280;65308;50.078;14.854;2023-02-19T07:12:43;98771.19;;;11.06
76476;BMP280;65308;50.078;14.854;2023-02-19T07:15:10;98790.63;;;11.25
76476;BMP280;65308;50.078;14.854;2023-02-19T07:17:37;98794.94;;;11.22
76476;BMP280;65308;50.078;14.854;2023-02-19T07:20:05;98798.03;;;11.39
76476;BMP280;65308;50.078;14.854;2023-02-19T07:22:31;98805.34;;;11.29
76476;BMP280;65308;50.078;14.854;2023-02-19T07:25:00;98802.81;;;11.26
76476;BMP280;65308;50.078;14.854;2023-02-19T07:27:26;98804.16;;;11.21
76476;BMP280;65308;50.078;14.854;2023-02-19T07:29:55;98805.97;;;11.15
76476;BMP280;65308;50.078;14.854;2023-02-19T07:32:23;98799.75;;;11.09
76476;BMP280;65308;50.078;14.854;2023-02-19T07:34:50;98821.28;;;11.15
76476;BMP280;65308;50.078;14.854;2023-02-19T07:37:17;98815.94;;;11.15
76476;BMP280;65308;50.078;14.854;2023-02-19T07:39:44;98823.97;;;11.15
76476;BMP280;65308;50.078;14.854;2023-02-19T07:42:12;98825.00;;;11.17
76476;BMP280;65308;50.078;14.854;2023-02-19T07:44:39;98828.16;;;11.25
76476;BMP280;65308;50.078;14.854;2023-02-19T07:47:06;98835.44;;;11.15
76476;BMP280;65308;50.078;14.854;2023-02-19T07:49:34;98832.78;;;11.15
76476;BMP280;65308;50.078;14.854;2023-02-19T07:52:01;98849.59;;;11.16
76476;BMP280;65308;50.078;14.854;2023-02-19T07:54:28;98846.31;;;11.02
76476;BMP280;65308;50.078;14.854;2023-02-19T07:56:55;98842.59;;;11.00
76476;BMP280;65308;50.078;14.854;2023-02-19T07:59:24;98849.44;;;11.10
76476;BMP280;65308;50.078;14.854;2023-02-19T08:01:53;98850.19;;;11.11
76476;BMP280;65308;50.078;14.854;2023-02-19T08:04:38;98853.44;;;11.15
76476;BMP280;65308;50.078;14.854;2023-02-19T08:07:04;98858.63;;;11.27
76476;BMP280;65308;50.078;14.854;2023-02-19T08:09:32;98862.78;;;11.38
76476;BMP280;65308;50.078;14.854;2023-02-19T08:11:59;98858.03;;;11.32
76476;BMP280;65308;50.078;14.854;2023-02-19T08:14:44;98881.53;;;11.38
76476;BMP280;65308;50.078;14.854;2023-02-19T08:17:15;98884.81;;;11.42
76476;BMP280;65308;50.078;14.854;2023-02-19T08:19:44;98888.31;;;11.57
76476;BMP280;65308;50.078;14.854;2023-02-19T08:22:11;98892.50;;;11.58
76476;BMP280;65308;50.078;14.854;2023-02-19T08:24:40;98888.50;;;11.53
76476;BMP280;65308;50.078;14.854;2023-02-19T08:27:07;98905.66;;;11.28
76476;BMP280;65308;50.078;14.854;2023-02-19T08:29:34;98911.63;;;11.14
76476;BMP280;65308;50.078;14.854;2023-02-19T08:32:02;98907.19;;;11.02
76476;BMP280;65308;50.078;14.854;2023-02-19T08:34:29;98909.13;;;11.01
76476;BMP280;65308;50.078;14.854;2023-02-19T08:36:56;98896.94;;;10.82
76476;BMP280;65308;50.078;14.854;2023-02-19T08:39:25;98906.84;;;10.91
76476;BMP280;65308;50.078;14.854;2023-02-19T08:41:51;98907.47;;;11.13
76476;BMP280;65308;50.078;14.854;2023-02-19T08:44:18;98907.00;;;11.15
76476;BMP280;65308;50.078;14.854;2023-02-19T08:46:45;98903.75;;;11.20
76476;BMP280;65308;50.078;14.854;2023-02-19T08:49:14;98908.94;;;11.23
76476;BMP280;65308;50.078;14.854;2023-02-19T08:51:42;98905.22;;;11.39
76476;BMP280;65308;50.078;14.854;2023-02-19T08:54:09;98912.22;;;11.37
76476;BMP280;65308;50.078;14.854;2023-02-19T08:56:36;98919.44;;;11.54
76476;BMP280;65308;50.078;14.854;2023-02-19T08:59:03;98920.31;;;11.70
76476;BMP280;65308;50.078;14.854;2023-02-19T09:01:30;98933.41;;;11.77
76476;BMP280;65308;50.078;14.854;2023-02-19T09:03:56;98924.31;;;11.84
76476;BMP280;65308;50.078;14.854;2023-02-19T09:06:24;98923.09;;;11.94
76476;BMP280;65308;50.078;14.854;2023-02-19T09:08:51;98934.25;;;11.92
76476;BMP280;65308;50.078;14.854;2023-02-19T09:11:18;98944.47;;;12.12
76476;BMP280;65308;50.078;14.854;2023-02-19T09:13:45;98947.16;;;12.12
76476;BMP280;65308;50.078;14.854;2023-02-19T09:16:11;98938.03;;;11.76
76476;BMP280;65308;50.078;14.854;2023-02-19T09:18:39;98955.72;;;11.83
76476;BMP280;65308;50.078;14.854;2023-02-19T09:21:05;98951.53;;;12.00
76476;BMP280;65308;50.078;14.854;2023-02-19T09:23:35;98951.97;;;11.99
76476;BMP280;65308;50.078;14.854;2023-02-19T09:26:03;98947.81;;;11.98
76476;BMP280;65308;50.078;14.854;2023-02-19T09:28:32;98951.75;;;12.12
76476;BMP280;65308;50.078;14.854;2023-02-19T09:31:03;98959.31;;;12.22
76476;BMP280;65308;50.078;14.854;2023-02-19T09:33:30;98955.31;;;12.18
76476;BMP280;65308;50.078;14.854;2023-02-19T09:35:57;98964.34;;;12.29
76476;BMP280;65308;50.078;14.854;2023-02-19T09:40:56;98972.28;;;12.24
76476;BMP280;65308;50.078;14.854;2023-02-19T09:43:27;98985.81;;;12.29
76476;BMP280;65308;50.078;14.854;2023-02-19T09:48:38;98979.53;;;12.33
76476;BMP280;65308;50.078;14.854;2023-02-19T09:51:09;98989.66;;;12.38
76476;BMP280;65308;50.078;14.854;2023-02-19T09:53:47;98987.75;;;12.29
76476;BMP280;65308;50.078;14.854;2023-02-19T09:56:17;98992.97;;;12.33
76476;BMP280;65308;50.078;14.854;2023-02-19T09:58:48;98993.88;;;12.29
76476;BMP280;65308;50.078;14.854;2023-02-19T10:01:15;99002.72;;;12.12
76476;BMP280;65308;50.078;14.854;2023-02-19T10:03:44;99004.59;;;12.29
76476;BMP280;65308;50.078;14.854;2023-02-19T10:06:17;99008.91;;;12.36
76476;BMP280;65308;50.078;14.854;2023-02-19T10:08:46;99009.66;;;12.37
76476;BMP280;65308;50.078;14.854;2023-02-19T10:16:25;99024.34;;;12.17
76476;BMP280;65308;50.078;14.854;2023-02-19T10:18:53;99028.38;;;12.13
76476;BMP280;65308;50.078;14.854;2023-02-19T10:21:23;99029.84;;;12.14
76476;BMP280;65308;50.078;14.854;2023-02-19T10:23:52;99043.47;;;11.92
76476;BMP280;65308;50.078;14.854;2023-02-19T10:26:21;99038.13;;;11.64
76476;BMP280;65308;50.078;14.854;2023-02-19T10:28:49;99045.44;;;11.64
76476;BMP280;65308;50.078;14.854;2023-02-19T10:31:20;99052.44;;;11.52
76476;BMP280;65308;50.078;14.854;2023-02-19T10:33:50;99054.22;;;11.55
76476;BMP280;65308;50.078;14.854;2023-02-19T10:36:24;99059.88;;;11.57
76476;BMP280;65308;50.078;14.854;2023-02-19T10:38:52;99062.41;;;11.33
76476;BMP280;65308;50.078;14.854;2023-02-19T10:41:21;99063.00;;;11.37
76476;BMP280;65308;50.078;14.854;2023-02-19T10:43:52;99073.53;;;11.04
76476;BMP280;65308;50.078;14.854;2023-02-19T10:46:27;99081.34;;;10.80
76476;BMP280;65308;50.078;14.854;2023-02-19T10:48:58;99077.66;;;10.55
76476;BMP280;65308;50.078;14.854;2023-02-19T10:51:31;99082.84;;;10.50
76476;BMP280;65308;50.078;14.854;2023-02-19T10:54:04;99096.84;;;10.54
76476;BMP280;65308;50.078;14.854;2023-02-19T10:56:32;99084.19;;;10.54
76476;BMP280;65308;50.078;14.854;2023-02-19T10:59:14;99099.63;;;10.81
76476;BMP280;65308;50.078;14.854;2023-02-19T11:01:52;99125.28;;;10.39
76476;BMP280;65308;50.078;14.854;2023-02-19T11:04:24;99127.66;;;10.15
76476;BMP280;65308;50.078;14.854;2023-02-19T11:06:52;99144.47;;;9.68
76476;BMP280;65308;50.078;14.854;2023-02-19T11:09:24;99150.72;;;9.64
76476;BMP280;65308;50.078;14.854;2023-02-19T11:11:53;99151.16;;;8.99
76476;BMP280;65308;50.078;14.854;2023-02-19T11:14:22;99153.88;;;8.57
76476;BMP280;65308;50.078;14.854;2023-02-19T11:16:51;99150.19;;;8.38
76476;BMP280;65308;50.078;14.854;2023-02-19T11:19:30;99145.28;;;8.20
76476;BMP280;65308;50.078;14.854;2023-02-19T11:22:00;99147.28;;;8.33
76476;BMP280;65308;50.078;14.854;2023-02-19T11:24:31;99156.63;;;8.24
76476;BMP280;65308;50.078;14.854;2023-02-19T11:27:00;99151.78;;;8.36
76476;BMP280;65308;50.078;14.854;2023-02-19T11:29:29;99166.59;;;8.37
76476;BMP280;65308;50.078;14.854;2023-02-19T11:32:16;99156.97;;;8.27
76476;BMP280;65308;50.078;14.854;2023-02-19T11:34:48;99170.63;;;8.29
76476;BMP280;65308;50.078;14.854;2023-02-19T11:37:16;99162.03;;;8.21
76476;BMP280;65308;50.078;14.854;2023-02-19T11:39:45;99177.22;;;8.24
76476;BMP280;65308;50.078;14.854;2023-02-19T11:42:31;99172.63;;;8.24
76476;BMP280;65308;50.078;14.854;2023-02-19T11:45:21;99176.44;;;8.23
76476;BMP280;65308;50.078;14.854;2023-02-19T11:48:24;99191.19;;;8.28
76476;BMP280;65308;50.078;14.854;2023-02-19T11:51:10;99206.84;;;8.42
76476;BMP280;65308;50.078;14.854;2023-02-19T11:53:44;99204.81;;;8.46
76476;BMP280;65308;50.078;14.854;2023-02-19T11:56:15;99205.31;;;8.58
76476;BMP280;65308;50.078;14.854;2023-02-19T11:58:59;99205.75;;;8.40
76476;BMP280;65308;50.078;14.854;2023-02-19T12:01:55;99212.81;;;8.46
76476;BMP280;65308;50.078;14.854;2023-02-19T12:04:47;99217.94;;;8.41
76476;BMP280;65308;50.078;14.854;2023-02-19T12:07:34;99219.03;;;8.43
76476;BMP280;65308;50.078;14.854;2023-02-19T12:10:11;99228.88;;;8.59
76476;BMP280;65308;50.078;14.854;2023-02-19T12:12:51;99246.28;;;8.35
76476;BMP280;65308;50.078;14.854;2023-02-19T12:15:39;99241.28;;;8.20
76476;BMP280;65308;50.078;14.854;2023-02-19T12:21:16;99243.78;;;7.95
76476;BMP280;65308;50.078;14.854;2023-02-19T12:24:01;99245.53;;;8.01
76476;BMP280;65308;50.078;14.854;2023-02-19T12:26:37;99265.63;;;8.06
76476;BMP280;65308;50.078;14.854;2023-02-19T12:32:25;99274.69;;;8.41
76476;BMP280;65308;50.078;14.854;2023-02-19T12:35:14;99274.53;;;8.32
76476;BMP280;65308;50.078;14.854;2023-02-19T12:37:51;99285.25;;;8.61
76476;BMP280;65308;50.078;14.854;2023-02-19T12:40:36;99295.06;;;8.81
76476;BMP280;65308;50.078;14.854;2023-02-19T12:43:14;99302.59;;;8.99
76476;BMP280;65308;50.078;14.854;2023-02-19T12:45:46;99305.53;;;9.17
76476;BMP280;65308;50.078;14.854;2023-02-19T12:48:23;99318.97;;;9.13
76476;BMP280;65308;50.078;14.854;2023-02-19T12:50:54;99318.16;;;9.16
76476;BMP280;65308;50.078;14.854;2023-02-19T12:53:41;99314.38;;;8.85
76476;BMP280;65308;50.078;14.854;2023-02-19T12:56:16;99315.41;;;8.75
76476;BMP280;65308;50.078;14.854;2023-02-19T12:58:47;99312.19;;;8.51
76476;BMP280;65308;50.078;14.854;2023-02-19T13:01:19;99311.88;;;8.32
76476;BMP280;65308;50.078;14.854;2023-02-19T13:03:50;99320.19;;;8.18
76476;BMP280;65308;50.078;14.854;2023-02-19T13:06:29;99331.75;;;8.11
76476;BMP280;65308;50.078;14.854;2023-02-19T13:09:00;99328.88;;;8.22
76476;BMP280;65308;50.078;14.854;2023-02-19T13:11:33;99328.72;;;8.29
76476;BMP280;65308;50.078;14.854;2023-02-19T13:14:06;99335.94;;;8.12
76476;BMP280;65308;50.078;14.854;2023-02-19T13:16:39;99341.59;;;8.14
76476;BMP280;65308;50.078;14.854;2023-02-19T13:19:08;99347.53;;;8.22
76476;BMP280;65308;50.078;14.854;2023-02-19T13:21:36;99342.13;;;8.42
76476;BMP280;65308;50.078;14.854;2023-02-19T13:24:24;99352.53;;;8.20
76476;BMP280;65308;50.078;14.854;2023-02-19T13:27:04;99348.63;;;8.24
76476;BMP280;65308;50.078;14.854;2023-02-19T13:29:50;99358.38;;;8.31
76476;BMP280;65308;50.078;14.854;2023-02-19T13:32:28;99350.38;;;8.31
76476;BMP280;65308;50.078;14.854;2023-02-19T13:35:15;99351.38;;;8.37
76476;BMP280;65308;50.078;14.854;2023-02-19T13:37:45;99364.13;;;8.46
76476;BMP280;65308;50.078;14.854;2023-02-19T13:40:19;99367.78;;;8.19
76476;BMP280;65308;50.078;14.854;2023-02-19T13:42:54;99366.34;;;7.98
76476;BMP280;65308;50.078;14.854;2023-02-19T13:45:25;99393.22;;;7.68
76476;BMP280;65308;50.078;14.854;2023-02-19T13:48:14;99384.31;;;7.94
76476;BMP280;65308;50.078;14.854;2023-02-19T13:50:41;99379.41;;;8.09
76476;BMP280;65308;50.078;14.854;2023-02-19T13:56:38;99389.50;;;8.01
76476;BMP280;65308;50.078;14.854;2023-02-19T13:59:34;99401.47;;;7.93
76476;BMP280;65308;50.078;14.854;2023-02-19T14:02:08;99411.31;;;7.37
76476;BMP280;65308;50.078;14.854;2023-02-19T14:04:41;99419.31;;;7.57
76476;BMP280;65308;50.078;14.854;2023-02-19T14:13:58;99416.31;;;7.31
76476;BMP280;65308;50.078;14.854;2023-02-19T14:16:49;99417.97;;;7.48
76476;BMP280;65308;50.078;14.854;2023-02-19T14:19:53;99424.28;;;7.35
76476;BMP280;65308;50.078;14.854;2023-02-19T14:22:57;99430.47;;;7.28
76476;BMP280;65308;50.078;14.854;2023-02-19T14:25:44;99432.75;;;7.06
76476;BMP280;65308;50.078;14.854;2023-02-19T14:28:20;99433.38;;;7.14
76476;BMP280;65308;50.078;14.854;2023-02-19T14:30:51;99431.66;;;7.03
76476;BMP280;65308;50.078;14.854;2023-02-19T14:33:22;99443.75;;;6.81
76476;BMP280;65308;50.078;14.854;2023-02-19T14:35:53;99445.69;;;6.77
76476;BMP280;65308;50.078;14.854;2023-02-19T14:38:22;99432.31;;;6.57
76476;BMP280;65308;50.078;14.854;2023-02-19T14:40:50;99445.44;;;6.40
76476;BMP280;65308;50.078;14.854;2023-02-19T14:43:20;99450.66;;;6.21
76476;BMP280;65308;50.078;14.854;2023-02-19T14:45:50;99454.91;;;6.14
76476;BMP280;65308;50.078;14.854;2023-02-19T14:48:22;99453.41;;;6.13
76476;BMP280;65308;50.078;14.854;2023-02-19T14:50:52;99460.59;;;6.13
76476;BMP280;65308;50.078;14.854;2023-02-19T14:53:21;99455.91;;;6.24